Time;durP1;ratioP1;P1;durP2;ratioP2;P2;SDS_P1;SDS_P2;PMS_P1;PMS_P2;Temp;Humidity;BMP_temperature;BMP_pressure;BME280_temperature;BME280_humidity;BME280_pressure;Samples;Min_cycle;Max_cycle;Signal;HPM_P1;HPM_P2
2022/09/28 00:02:04;;;;;;;10.43;8.70;;;8.40;99.90;;;;;;5057665;28;20293;-65
2022/09/28 00:04:30;;;;;;;10.85;8.82;;;8.40;99.90;;;;;;5055136;28;20037;-65
2022/09/28 00:06:55;;;;;;;10.38;9.27;;;8.50;99.90;;;;;;5060096;28;20033;-65
2022/09/28 00:09:21;;;;;;;15.02;10.35;;;8.50;99.90;;;;;;5052771;28;20036;-65
2022/09/28 00:11:46;;;;;;;12.60;10.43;;;8.50;99.90;;;;;;5051344;28;20056;-65
2022/09/28 00:14:12;;;;;;;16.33;10.35;;;8.50;99.90;;;;;;5055843;28;20033;-65
2022/09/28 00:16:42;;;;;;;14.57;11.00;;;8.40;99.90;;;;;;5053231;28;20158;-65
2022/09/28 00:19:10;;;;;;;15.32;12.00;;;8.40;99.90;;;;;;5054671;28;20124;-65
2022/09/28 00:21:38;;;;;;;14.70;12.00;;;8.40;99.90;;;;;;5054393;28;20040;-65
2022/09/28 00:24:11;;;;;;;12.35;11.02;;;8.40;99.90;;;;;;5059689;28;20040;-65
2022/09/28 00:26:39;;;;;;;16.35;11.45;;;8.40;99.90;;;;;;5056774;28;20037;-65
2022/09/28 00:29:07;;;;;;;16.15;12.43;;;8.50;99.90;;;;;;5052504;28;20424;-65
2022/09/28 00:31:34;;;;;;;17.70;13.68;;;8.40;99.90;;;;;;5052754;28;20442;-66
2022/09/28 00:34:00;;;;;;;18.30;12.43;;;8.50;99.90;;;;;;5054404;28;20041;-65
2022/09/28 00:36:28;;;;;;;15.82;12.90;;;8.50;99.90;;;;;;5056612;28;20063;-65
2022/09/28 00:38:55;;;;;;;16.77;13.07;;;8.50;99.90;;;;;;5057898;28;20495;-65
2022/09/28 00:41:22;;;;;;;17.52;12.63;;;8.50;99.90;;;;;;5055560;28;20063;-65
2022/09/28 00:43:48;;;;;;;18.67;14.32;;;8.50;99.90;;;;;;5052135;28;20064;-65
2022/09/28 00:46:16;;;;;;;25.17;15.35;;;8.50;99.90;;;;;;5050200;28;20135;-65
2022/09/28 00:48:57;;;;;;;19.85;14.95;;;8.50;99.90;;;;;;5050343;28;20427;-63
2022/09/28 00:51:25;;;;;;;18.50;13.50;;;8.50;99.90;;;;;;5054041;28;20044;-63
2022/09/28 00:53:52;;;;;;;17.08;13.85;;;8.40;99.90;;;;;;5052105;28;20040;-63
2022/09/28 00:56:20;;;;;;;16.73;14.20;;;8.50;99.90;;;;;;5055202;28;20566;-63
2022/09/28 00:58:49;;;;;;;17.73;14.10;;;8.60;99.90;;;;;;5051482;28;20280;-64
2022/09/28 01:01:16;;;;;;;18.73;15.60;;;8.50;99.90;;;;;;5053179;28;20052;-64
2022/09/28 01:03:44;;;;;;;21.10;15.30;;;8.50;99.90;;;;;;5054347;28;20047;-64
2022/09/28 01:06:16;;;;;;;19.35;15.57;;;8.50;99.90;;;;;;5051464;28;20043;-64
2022/09/28 01:08:44;;;;;;;27.52;15.82;;;8.60;99.90;;;;;;5053323;28;20059;-64
2022/09/28 01:11:10;;;;;;;21.52;16.08;;;8.60;99.90;;;;;;5051312;28;20075;-64
2022/09/28 01:13:37;;;;;;;22.55;15.23;;;8.50;99.90;;;;;;5051991;28;20033;-64
2022/09/28 01:16:11;;;;;;;22.08;15.90;;;8.50;99.90;;;;;;5050461;28;20123;-64
2022/09/28 01:18:48;;;;;;;25.58;16.05;;;8.50;99.90;;;;;;5049542;28;20040;-64
2022/09/28 01:21:16;;;;;;;20.65;16.30;;;8.50;99.90;;;;;;5052479;28;20416;-64
2022/09/28 01:24:09;;;;;;;20.08;15.68;;;8.50;99.90;;;;;;5054408;28;20029;-64
2022/09/28 01:26:44;;;;;;;20.25;15.98;;;8.50;99.90;;;;;;5047483;28;20134;-64
2022/09/28 01:29:16;;;;;;;22.10;15.52;;;8.50;99.90;;;;;;5056397;28;20141;-64
2022/09/28 01:31:48;;;;;;;19.45;15.13;;;8.50;99.90;;;;;;5049120;28;20045;-65
2022/09/28 01:34:24;;;;;;;19.83;15.18;;;8.50;99.90;;;;;;5052675;28;20072;-65
2022/09/28 01:36:55;;;;;;;21.42;16.08;;;8.50;99.90;;;;;;5050136;28;20032;-65
2022/09/28 01:39:39;;;;;;;23.23;15.18;;;8.50;99.90;;;;;;5051895;28;20164;-65
2022/09/28 01:42:18;;;;;;;23.90;16.27;;;8.50;99.90;;;;;;5052974;28;20377;-65
2022/09/28 01:44:48;;;;;;;18.52;14.95;;;8.40;99.90;;;;;;5054680;28;20468;-65
2022/09/28 01:47:19;;;;;;;21.80;15.38;;;8.40;99.90;;;;;;5048306;28;20140;-65
2022/09/28 01:50:16;;;;;;;16.42;13.65;;;8.40;99.90;;;;;;5051676;28;20083;-66
2022/09/28 01:52:51;;;;;;;18.27;15.68;;;8.30;99.90;;;;;;5043129;28;20045;-65
2022/09/28 01:55:49;;;;;;;18.75;13.13;;;8.30;99.90;;;;;;5050568;28;20527;-65
2022/09/28 01:58:29;;;;;;;16.98;13.73;;;8.20;99.90;;;;;;5036804;28;20397;-65
2022/09/28 02:01:01;;;;;;;18.05;13.98;;;8.20;99.90;;;;;;5056030;28;20397;-65
2022/09/28 02:03:45;;;;;;;17.42;14.13;;;8.10;99.90;;;;;;5052458;28;20040;-65
2022/09/28 02:06:25;;;;;;;17.40;14.18;;;8.10;99.90;;;;;;5054436;28;20485;-65
2022/09/28 02:08:59;;;;;;;17.60;14.63;;;8.10;99.90;;;;;;5055521;28;20076;-65
2022/09/28 02:11:24;;;;;;;17.43;14.53;;;8.10;99.90;;;;;;5055620;28;20108;-65
2022/09/28 02:14:00;;;;;;;17.08;14.85;;;8.10;99.90;;;;;;5054888;28;20132;-64
2022/09/28 02:16:42;;;;;;;25.27;17.27;;;8.10;99.90;;;;;;5048439;28;20245;-65
2022/09/28 02:19:28;;;;;;;37.22;21.52;;;8.10;99.90;;;;;;5062454;28;20034;-65
2022/09/28 02:22:03;;;;;;;80.97;21.58;;;8.10;99.90;;;;;;5056924;28;20040;-65
2022/09/28 02:24:52;;;;;;;36.08;20.77;;;8.10;99.90;;;;;;5054833;28;20110;-65
2022/09/28 02:27:47;;;;;;;34.15;21.77;;;8.10;99.90;;;;;;5059807;28;20095;-65
2022/09/28 02:30:13;;;;;;;63.33;23.45;;;8.10;99.90;;;;;;5057596;28;20041;-64
2022/09/28 02:32:43;;;;;;;46.05;20.73;;;8.20;99.90;;;;;;5055337;28;20395;-65
2022/09/28 02:35:12;;;;;;;34.65;21.27;;;8.20;99.90;;;;;;5057233;28;20041;-65
2022/09/28 02:37:39;;;;;;;53.85;21.75;;;8.20;99.90;;;;;;5057873;28;20130;-65
2022/09/28 02:40:15;;;;;;;45.67;20.77;;;8.20;99.90;;;;;;5053530;28;20037;-65
2022/09/28 02:43:01;;;;;;;35.95;21.42;;;8.20;99.90;;;;;;5054244;28;20055;-64
2022/09/28 02:45:49;;;;;;;27.98;20.90;;;8.20;99.90;;;;;;5057953;28;20044;-66
2022/09/28 02:48:31;;;;;;;107.97;21.25;;;8.20;99.90;;;;;;5050711;28;20052;-63
2022/09/28 02:51:17;;;;;;;66.95;22.25;;;8.20;99.90;;;;;;5052117;28;20080;-63
2022/09/28 02:54:13;;;;;;;48.88;22.13;;;8.20;99.90;;;;;;5057707;28;20103;-64
2022/09/28 02:56:51;;;;;;;170.35;24.80;;;8.20;99.90;;;;;;5057751;28;20071;-64
2022/09/28 02:59:19;;;;;;;69.38;23.52;;;8.10;99.90;;;;;;5053722;28;20068;-63
2022/09/28 03:02:17;;;;;;;111.93;22.70;;;8.10;99.90;;;;;;5056429;28;20397;-64
2022/09/28 03:05:14;;;;;;;259.27;34.60;;;8.10;99.90;;;;;;5052865;28;20120;-63
2022/09/28 03:07:58;;;;;;;256.00;35.45;;;8.00;99.90;;;;;;5053424;28;20036;-64
2022/09/28 03:10:32;;;;;;;34.05;20.55;;;8.00;99.90;;;;;;5055550;28;20075;-64
2022/09/28 03:12:58;;;;;;;49.33;18.75;;;8.00;99.90;;;;;;5054667;28;20033;-64
2022/09/28 03:15:28;;;;;;;40.78;19.70;;;8.00;99.90;;;;;;5057825;28;20123;-64
2022/09/28 03:17:55;;;;;;;75.43;20.52;;;8.10;99.90;;;;;;5062010;28;20063;-64
2022/09/28 03:20:21;;;;;;;52.53;18.55;;;8.00;99.90;;;;;;5054477;28;20033;-64
2022/09/28 03:22:46;;;;;;;27.42;18.38;;;8.10;99.90;;;;;;5058403;28;20471;-64
2022/09/28 03:25:14;;;;;;;25.30;18.15;;;8.10;99.90;;;;;;5051489;28;20044;-64
2022/09/28 03:27:40;;;;;;;45.33;20.98;;;8.10;99.90;;;;;;5057654;28;20124;-64
2022/09/28 03:30:06;;;;;;;34.10;20.65;;;8.10;99.90;;;;;;5053870;28;20119;-64
2022/09/28 03:32:32;;;;;;;41.05;20.98;;;8.10;99.90;;;;;;5058098;28;20051;-64
2022/09/28 03:34:58;;;;;;;31.95;20.92;;;8.10;99.90;;;;;;5059247;28;20116;-64
2022/09/28 03:37:23;;;;;;;87.80;22.83;;;8.10;99.90;;;;;;5052505;28;20049;-64
2022/09/28 03:39:49;;;;;;;114.05;26.02;;;8.10;99.90;;;;;;5052746;28;20032;-64
2022/09/28 03:42:15;;;;;;;68.60;21.13;;;8.10;99.90;;;;;;5053458;28;20029;-64
2022/09/28 03:44:40;;;;;;;51.03;22.27;;;8.10;99.90;;;;;;5058986;28;20060;-64
2022/09/28 03:47:07;;;;;;;36.00;21.00;;;8.10;99.90;;;;;;5050835;28;20041;-64
2022/09/28 03:49:32;;;;;;;49.70;20.65;;;8.00;99.90;;;;;;5056975;28;20115;-65
2022/09/28 03:51:58;;;;;;;50.00;22.05;;;8.10;99.90;;;;;;5051122;28;20236;-64
2022/09/28 03:54:24;;;;;;;218.30;31.80;;;8.10;99.90;;;;;;5058609;28;20053;-64
2022/09/28 03:56:50;;;;;;;87.07;23.00;;;8.00;99.90;;;;;;5051535;28;20063;-64
2022/09/28 03:59:16;;;;;;;35.60;19.52;;;8.00;99.90;;;;;;5051160;28;20079;-65
2022/09/28 04:01:42;;;;;;;43.30;20.50;;;8.00;99.90;;;;;;5055779;28;20453;-64
2022/09/28 04:04:11;;;;;;;28.75;19.30;;;8.00;99.90;;;;;;5060555;28;20033;-65
2022/09/28 04:06:37;;;;;;;79.75;24.58;;;8.10;99.90;;;;;;5054802;28;20052;-64
2022/09/28 04:09:03;;;;;;;78.05;23.98;;;8.10;99.90;;;;;;5058848;28;20036;-65
2022/09/28 04:11:29;;;;;;;42.03;20.08;;;8.10;99.90;;;;;;5058483;28;20040;-64
2022/09/28 04:13:54;;;;;;;113.10;26.38;;;8.10;99.90;;;;;;5056017;28;20041;-64
2022/09/28 04:16:20;;;;;;;114.90;20.55;;;8.10;99.90;;;;;;5053016;28;20044;-64
2022/09/28 04:18:47;;;;;;;122.80;24.20;;;8.10;99.90;;;;;;5059507;28;20388;-64
2022/09/28 04:21:15;;;;;;;143.48;28.77;;;8.00;99.90;;;;;;5048985;28;20041;-64
2022/09/28 04:23:41;;;;;;;84.05;20.65;;;8.00;99.90;;;;;;5054615;28;20032;-64
2022/09/28 04:26:12;;;;;;;217.18;30.10;;;8.00;99.90;;;;;;5062641;28;20037;-65
2022/09/28 04:31:23;;;;;;;61.72;18.13;;;7.90;99.90;;;;;;5054692;28;20056;-64
2022/09/28 04:33:49;;;;;;;272.02;34.08;;;7.90;99.90;;;;;;5055151;28;20051;-65
2022/09/28 04:36:14;;;;;;;21.52;17.80;;;7.80;99.90;;;;;;5057636;28;20049;-65
2022/09/28 04:38:40;;;;;;;57.28;20.10;;;7.80;99.90;;;;;;5051098;28;20498;-64
2022/09/28 04:41:06;;;;;;;34.40;17.55;;;7.80;99.90;;;;;;5047943;28;20388;-64
2022/09/28 04:43:32;;;;;;;49.42;19.33;;;7.80;99.90;;;;;;5046300;28;20037;-64
2022/09/28 04:45:59;;;;;;;37.50;16.33;;;7.90;99.90;;;;;;5051668;28;20037;-64
2022/09/28 04:48:26;;;;;;;89.07;18.52;;;7.90;99.90;;;;;;5052125;28;20041;-64
2022/09/28 04:50:56;;;;;;;65.60;15.38;;;7.90;99.90;;;;;;5057455;28;20051;-64
2022/09/28 04:53:22;;;;;;;23.55;15.27;;;7.90;99.90;;;;;;5057705;28;20044;-64
2022/09/28 04:55:58;;;;;;;35.72;15.55;;;7.80;99.90;;;;;;5057435;28;20530;-64
2022/09/28 04:58:24;;;;;;;29.08;15.98;;;7.80;99.90;;;;;;5056365;28;20084;-64
2022/09/28 05:00:50;;;;;;;62.90;19.50;;;7.80;99.90;;;;;;5055402;28;20041;-66
2022/09/28 05:03:16;;;;;;;19.67;16.63;;;7.80;99.90;;;;;;5054085;28;20059;-64
2022/09/28 05:05:43;;;;;;;38.63;15.48;;;7.80;99.90;;;;;;5055167;28;20036;-64
2022/09/28 05:08:09;;;;;;;62.13;17.45;;;7.80;99.90;;;;;;5051330;28;20520;-64
2022/09/28 05:10:35;;;;;;;40.80;16.95;;;7.70;99.90;;;;;;5045968;28;20036;-64
2022/09/28 05:13:01;;;;;;;47.75;16.45;;;7.70;99.90;;;;;;5051444;28;20481;-64
2022/09/28 05:15:27;;;;;;;22.13;15.77;;;7.70;99.90;;;;;;5051831;28;20032;-64
2022/09/28 05:17:53;;;;;;;25.83;16.08;;;7.70;99.90;;;;;;5053509;28;20033;-64
2022/09/28 05:20:18;;;;;;;25.17;14.98;;;7.70;99.90;;;;;;5057435;28;20059;-64
2022/09/28 05:22:44;;;;;;;36.50;16.90;;;7.70;99.90;;;;;;5053459;28;20418;-64
2022/09/28 05:25:09;;;;;;;31.38;16.92;;;7.70;99.90;;;;;;5051930;28;20029;-64
2022/09/28 05:27:35;;;;;;;60.35;17.60;;;7.70;99.90;;;;;;5052084;28;20041;-64
2022/09/28 05:30:01;;;;;;;51.88;17.42;;;7.70;99.90;;;;;;5048644;28;20517;-64
2022/09/28 05:32:26;;;;;;;60.33;16.83;;;7.70;99.90;;;;;;5050828;28;20499;-64
2022/09/28 05:34:54;;;;;;;48.50;17.65;;;7.70;99.90;;;;;;5049292;28;20049;-64
2022/09/28 05:37:20;;;;;;;44.55;17.65;;;7.70;99.90;;;;;;5054935;28;20349;-64
2022/09/28 05:39:45;;;;;;;55.78;17.63;;;7.70;99.90;;;;;;5056633;28;20043;-64
2022/09/28 05:42:11;;;;;;;58.70;20.05;;;7.70;99.90;;;;;;5054926;28;20083;-65
2022/09/28 05:44:37;;;;;;;96.32;24.13;;;7.70;99.90;;;;;;5057262;28;20060;-67
2022/09/28 05:47:03;;;;;;;27.88;18.55;;;7.70;99.90;;;;;;5052747;28;20112;-64
2022/09/28 05:49:30;;;;;;;36.60;18.65;;;7.70;99.90;;;;;;5054783;28;20033;-65
2022/09/28 05:51:56;;;;;;;52.45;21.13;;;7.70;99.90;;;;;;5051547;28;20167;-65
2022/09/28 05:54:22;;;;;;;41.50;20.15;;;7.80;99.90;;;;;;5050954;28;20128;-64
2022/09/28 05:56:47;;;;;;;37.38;19.73;;;7.70;99.90;;;;;;5051461;28;20045;-65
2022/09/28 05:59:13;;;;;;;46.13;21.15;;;7.80;99.90;;;;;;5053486;28;20036;-65
2022/09/28 06:01:39;;;;;;;52.60;21.35;;;7.80;99.90;;;;;;5053241;28;20033;-65
2022/09/28 06:04:04;;;;;;;28.75;18.98;;;7.90;99.90;;;;;;5056626;28;20045;-65
2022/09/28 06:06:30;;;;;;;33.65;19.77;;;7.90;99.90;;;;;;5060569;28;20029;-66
2022/09/28 06:08:56;;;;;;;167.32;31.60;;;8.00;99.90;;;;;;5062220;28;20028;-65
2022/09/28 06:11:24;;;;;;;52.35;21.67;;;8.00;99.90;;;;;;5055269;28;20553;-65
2022/09/28 06:13:55;;;;;;;65.10;22.08;;;7.90;99.90;;;;;;5056371;28;20044;-65
2022/09/28 06:16:21;;;;;;;103.22;26.42;;;7.90;99.90;;;;;;5050943;28;20040;-64
2022/09/28 06:18:47;;;;;;;103.10;25.85;;;8.00;99.90;;;;;;5057036;28;20053;-64
2022/09/28 06:21:13;;;;;;;106.28;26.95;;;8.00;99.90;;;;;;5058568;28;20044;-64
2022/09/28 06:23:38;;;;;;;83.88;22.38;;;7.90;99.90;;;;;;5058328;28;20103;-65
2022/09/28 06:26:04;;;;;;;97.45;26.58;;;8.00;99.90;;;;;;5056762;28;20047;-65
2022/09/28 06:28:30;;;;;;;98.68;27.35;;;8.00;99.90;;;;;;5055447;28;20029;-65
2022/09/28 06:30:59;;;;;;;108.30;29.05;;;8.00;99.90;;;;;;5050165;28;20049;-65
2022/09/28 06:33:25;;;;;;;158.15;31.55;;;8.00;99.90;;;;;;5056537;28;20064;-65
2022/09/28 06:35:53;;;;;;;92.07;25.83;;;8.00;99.90;;;;;;5053297;28;20049;-65
2022/09/28 06:38:22;;;;;;;139.52;31.15;;;7.90;99.90;;;;;;5057389;28;20215;-65
2022/09/28 06:40:54;;;;;;;83.35;23.45;;;8.00;99.90;;;;;;5051356;28;20059;-65
2022/09/28 06:43:28;;;;;;;115.57;28.73;;;8.00;99.90;;;;;;5051374;28;20037;-65
2022/09/28 06:46:01;;;;;;;75.85;23.88;;;8.00;99.90;;;;;;5050911;28;20036;-64
2022/09/28 06:48:32;;;;;;;104.45;28.63;;;8.00;99.90;;;;;;5051977;28;20040;-65
2022/09/28 06:50:59;;;;;;;120.00;29.65;;;8.00;99.90;;;;;;5054097;28;20122;-64
2022/09/28 06:53:27;;;;;;;73.50;25.38;;;8.10;99.90;;;;;;5052938;28;20033;-66
2022/09/28 06:55:53;;;;;;;44.33;22.90;;;8.10;99.90;;;;;;5050273;28;20045;-65
2022/09/28 06:58:20;;;;;;;100.35;28.02;;;8.20;99.90;;;;;;5059769;28;20037;-64
2022/09/28 07:00:48;;;;;;;33.70;21.50;;;8.30;99.90;;;;;;5051080;28;20063;-65
2022/09/28 07:03:19;;;;;;;43.90;23.38;;;8.40;99.90;;;;;;5058511;28;20076;-64
2022/09/28 07:05:50;;;;;;;42.58;22.15;;;8.40;99.90;;;;;;5060277;28;20056;-65
2022/09/28 07:08:17;;;;;;;41.10;22.48;;;8.60;99.90;;;;;;5056774;28;20130;-64
2022/09/28 07:10:45;;;;;;;42.47;21.45;;;8.60;99.90;;;;;;5053354;28;20041;-65
2022/09/28 07:13:14;;;;;;;40.15;22.08;;;8.70;99.90;;;;;;5052642;28;20040;-65
2022/09/28 07:15:42;;;;;;;35.67;22.23;;;8.80;99.90;;;;;;5052233;28;20033;-65
2022/09/28 07:18:09;;;;;;;42.28;23.08;;;8.90;99.90;;;;;;5057660;28;20326;-65
2022/09/28 07:20:36;;;;;;;42.08;23.00;;;9.10;99.90;;;;;;5054527;28;20080;-64
2022/09/28 07:23:05;;;;;;;36.22;21.85;;;9.20;99.90;;;;;;5048908;28;20036;-64
2022/09/28 07:25:31;;;;;;;39.58;21.88;;;9.30;99.90;;;;;;5051858;28;20082;-65
2022/09/28 07:28:02;;;;;;;31.77;20.65;;;9.30;99.90;;;;;;5050369;28;20147;-65
2022/09/28 07:30:32;;;;;;;32.20;21.23;;;9.40;99.90;;;;;;5051704;28;20048;-64
2022/09/28 07:32:59;;;;;;;29.33;19.27;;;9.40;99.90;;;;;;5049222;28;20045;-64
2022/09/28 07:35:24;;;;;;;28.85;20.15;;;9.30;99.90;;;;;;5052708;28;20040;-68
2022/09/28 07:38:02;;;;;;;27.42;18.08;;;9.30;99.90;;;;;;5053086;28;20370;-64
2022/09/28 07:43:13;;;;;;;24.20;18.20;;;9.50;99.90;;;;;;5060077;28;20143;-64
2022/09/28 07:45:41;;;;;;;24.30;18.05;;;9.70;99.90;;;;;;5054782;28;20053;-65
2022/09/28 07:48:07;;;;;;;23.92;18.13;;;9.90;99.90;;;;;;5056990;28;20060;-65
2022/09/28 07:50:33;;;;;;;22.20;18.40;;;10.30;99.90;;;;;;5059422;28;20582;-65
2022/09/28 07:52:59;;;;;;;23.48;17.98;;;10.70;99.90;;;;;;5051380;28;20033;-65
2022/09/28 07:55:25;;;;;;;19.17;15.77;;;11.20;99.90;;;;;;5057791;28;20099;-65
2022/09/28 07:58:00;;;;;;;16.83;15.23;;;11.50;99.90;;;;;;5061084;28;20045;-65
2022/09/28 08:00:31;;;;;;;16.98;15.18;;;11.60;99.90;;;;;;5054410;28;20123;-65
2022/09/28 08:03:01;;;;;;;16.42;14.10;;;11.50;99.90;;;;;;5057487;28;20044;-65
2022/09/28 08:05:31;;;;;;;16.80;15.10;;;11.50;99.90;;;;;;5054703;28;20041;-65
2022/09/28 08:07:58;;;;;;;15.35;13.77;;;11.50;99.90;;;;;;5054851;28;20049;-64
2022/09/28 08:10:25;;;;;;;15.88;13.77;;;11.30;99.90;;;;;;5058312;28;20530;-65
2022/09/28 08:13:01;;;;;;;14.20;12.70;;;11.30;99.90;;;;;;5061141;28;20044;-64
2022/09/28 08:15:27;;;;;;;14.38;12.98;;;11.30;99.90;;;;;;5054749;28;20405;-65
2022/09/28 08:17:52;;;;;;;15.18;13.50;;;11.20;99.90;;;;;;5053890;28;20080;-65
2022/09/28 08:23:11;;;;;;;14.23;12.73;;;11.20;99.90;;;;;;5052737;28;20048;-64
2022/09/28 08:25:37;;;;;;;;;;;11.40;99.90;;;;;;5054914;28;20047;-65
2022/09/28 08:28:05;;;;;;;14.20;12.57;;;11.80;99.90;;;;;;5057361;28;19921;-65
2022/09/28 08:30:30;;;;;;;12.55;11.25;;;11.80;99.90;;;;;;5054938;28;20565;-65
2022/09/28 08:32:56;;;;;;;13.48;12.07;;;11.80;99.90;;;;;;5047536;28;20057;-65
2022/09/28 08:35:24;;;;;;;14.13;12.82;;;11.80;99.90;;;;;;5058710;28;20080;-65
2022/09/28 08:37:53;;;;;;;14.02;12.52;;;12.20;99.90;;;;;;5058200;28;20260;-65
2022/09/28 08:40:24;;;;;;;14.10;12.70;;;12.70;99.90;;;;;;5054670;28;20036;-65
2022/09/28 08:43:00;;;;;;;14.13;12.27;;;12.90;99.90;;;;;;5051393;28;20040;-64
2022/09/28 08:45:28;;;;;;;13.85;12.52;;;13.00;99.90;;;;;;5050245;28;20056;-65
2022/09/28 08:51:14;;;;;;;13.38;12.00;;;12.90;99.90;;;;;;5057708;28;20518;-65
2022/09/28 08:53:58;;;;;;;13.93;12.52;;;12.70;99.90;;;;;;5052905;28;20400;-65
2022/09/28 08:56:33;;;;;;;12.43;11.18;;;12.60;99.90;;;;;;5054869;28;20118;-65
2022/09/28 08:59:04;;;;;;;12.35;11.15;;;12.80;99.90;;;;;;5047937;28;20507;-65
2022/09/28 09:01:39;;;;;;;13.02;11.13;;;12.90;99.90;;;;;;5051258;28;20052;-65
2022/09/28 09:04:05;;;;;;;11.50;10.40;;;13.60;99.90;;;;;;5050249;28;20094;-65
2022/09/28 09:06:53;;;;;;;12.32;10.80;;;14.20;99.90;;;;;;5053055;28;20045;-65
2022/09/28 09:09:29;;;;;;;12.80;11.10;;;14.70;99.90;;;;;;5055559;28;20041;-65
2022/09/28 09:12:13;;;;;;;12.07;10.88;;;14.70;99.90;;;;;;5048563;28;20045;-64
2022/09/28 09:15:14;;;;;;;10.48;9.48;;;14.50;99.90;;;;;;5053577;28;20123;-65
2022/09/28 09:18:02;;;;;;;10.02;9.13;;;14.50;99.90;;;;;;5050702;28;20393;-65
2022/09/28 09:20:51;;;;;;;9.95;8.95;;;15.20;99.90;;;;;;5055820;28;20048;-65
2022/09/28 09:23:36;;;;;;;10.35;9.35;;;16.10;99.90;;;;;;5055905;28;20037;-64
2022/09/28 09:26:16;;;;;;;9.30;8.45;;;15.90;99.90;;;;;;5053150;28;20055;-65
2022/09/28 09:29:00;;;;;;;9.02;8.13;;;15.80;99.90;;;;;;5055746;28;20085;-65
2022/09/28 09:32:11;;;;;;;8.75;7.85;;;16.70;99.90;;;;;;5054136;28;20314;-65
2022/09/28 09:35:07;;;;;;;8.88;7.97;;;17.00;99.90;;;;;;5009614;28;20044;-65
2022/09/28 09:37:40;;;;;;;7.90;7.10;;;17.10;99.90;;;;;;5058000;28;20056;-65
2022/09/28 09:40:23;;;;;;;7.30;6.57;;;17.10;99.90;;;;;;5058920;28;20040;-65
2022/09/28 09:43:03;;;;;;;7.13;6.18;;;17.10;99.90;;;;;;5042006;28;20045;-65
2022/09/28 09:45:44;;;;;;;7.82;6.25;;;17.60;99.90;;;;;;5047259;28;20041;-65
2022/09/28 09:48:28;;;;;;;6.90;6.00;;;18.30;99.90;;;;;;5044546;28;20405;-65
2022/09/28 09:51:01;;;;;;;6.82;6.20;;;19.50;99.90;;;;;;5048395;28;20727;-65
2022/09/28 09:53:37;;;;;;;5.70;5.20;;;20.10;99.90;;;;;;5047251;28;20044;-65
2022/09/28 09:56:27;;;;;;;5.30;4.80;;;19.80;99.90;;;;;;5043468;28;20049;-65
2022/09/28 09:58:58;;;;;;;4.97;4.30;;;19.10;99.90;;;;;;5048495;28;20129;-65
2022/09/28 10:01:33;;;;;;;4.90;4.40;;;18.40;99.90;;;;;;5045732;28;20040;-65
2022/09/28 10:04:01;;;;;;;4.63;4.07;;;17.60;99.90;;;;;;5049785;28;20435;-65
2022/09/28 10:06:36;;;;;;;3.78;3.20;;;17.00;99.90;;;;;;5055024;28;20407;-65
2022/09/28 10:09:19;;;;;;;3.10;2.70;;;16.40;99.90;;;;;;5045059;28;20050;-66
2022/09/28 10:11:50;;;;;;;3.50;3.08;;;16.00;99.90;;;;;;5050652;28;20037;-65
2022/09/28 10:14:20;;;;;;;3.35;3.00;;;15.90;99.90;;;;;;5048359;28;20321;-65
2022/09/28 10:16:48;;;;;;;5.65;2.85;;;16.00;99.90;;;;;;5049988;28;20033;-65
2022/09/28 10:19:18;;;;;;;5.32;2.45;;;15.90;99.90;;;;;;5046739;28;20079;-65
2022/09/28 10:21:45;;;;;;;2.97;1.73;;;16.00;99.90;;;;;;5050251;28;20037;-66
2022/09/28 10:24:21;;;;;;;2.70;1.65;;;15.80;99.90;;;;;;5046037;28;20037;-65
2022/09/28 10:26:52;;;;;;;2.35;1.75;;;15.60;99.90;;;;;;5049787;28;20044;-65
2022/09/28 10:29:25;;;;;;;3.63;1.70;;;15.40;99.90;;;;;;5049571;28;20052;-65
2022/09/28 10:31:53;;;;;;;3.60;1.48;;;15.20;99.90;;;;;;5054322;28;20049;-65
2022/09/28 10:34:29;;;;;;;2.55;1.10;;;15.10;99.90;;;;;;5049189;28;20036;-65
2022/09/28 10:37:00;;;;;;;2.55;1.08;;;15.10;99.90;;;;;;5054166;28;20044;-65
2022/09/28 10:39:31;;;;;;;1.20;0.90;;;15.10;99.90;;;;;;5055992;28;20063;-65
2022/09/28 10:42:05;;;;;;;2.45;1.10;;;15.10;99.90;;;;;;5053310;28;20159;-65
2022/09/28 10:44:43;;;;;;;1.33;0.70;;;15.10;99.90;;;;;;5055537;28;20044;-66
2022/09/28 10:47:14;;;;;;;1.98;1.00;;;15.00;99.90;;;;;;5050370;28;20465;-66
2022/09/28 10:49:43;;;;;;;2.75;1.00;;;14.90;99.90;;;;;;5051491;28;20056;-66
2022/09/28 10:52:37;;;;;;;1.83;0.82;;;14.80;99.90;;;;;;5056037;28;20044;-65
2022/09/28 10:55:32;;;;;;;2.77;0.87;;;14.70;99.90;;;;;;5051744;28;20053;-65
2022/09/28 10:57:58;;;;;;;;;;;14.60;99.90;;;;;;5055205;28;20048;-65
2022/09/28 11:00:36;;;;;;;1.85;0.63;;;14.40;99.90;;;;;;5052204;28;19920;-65
2022/09/28 11:03:02;;;;;;;3.72;0.88;;;14.40;99.90;;;;;;5049024;28;20428;-66
2022/09/28 11:05:28;;;;;;;2.03;0.60;;;14.40;99.90;;;;;;5039183;28;20263;-66
2022/09/28 11:07:56;;;;;;;2.55;0.50;;;14.50;99.90;;;;;;5049218;28;20464;-66
2022/09/28 11:10:30;;;;;;;97.20;86.65;;;14.80;99.90;;;;;;5046602;28;20039;-66
2022/09/28 11:12:56;;;;;;;8.75;7.82;;;15.60;99.90;;;;;;5052805;28;20060;-66
2022/09/28 11:15:29;;;;;;;3.70;1.13;;;15.80;99.90;;;;;;5049456;28;20488;-66
2022/09/28 11:17:55;;;;;;;2.05;0.68;;;15.70;99.90;;;;;;5054109;28;20056;-66
2022/09/28 11:20:24;;;;;;;3.05;0.47;;;15.80;99.90;;;;;;5048132;28;20488;-66
2022/09/28 11:22:54;;;;;;;1.65;0.52;;;15.60;99.90;;;;;;5049864;28;20049;-67
2022/09/28 11:25:24;;;;;;;2.28;0.40;;;15.50;99.90;;;;;;5049228;28;20124;-67
2022/09/28 11:27:49;;;;;;;1.52;0.50;;;15.50;99.90;;;;;;5049047;28;20155;-67
2022/09/28 11:30:32;;;;;;;1.38;0.40;;;15.80;99.90;;;;;;5049264;28;20120;-67
2022/09/28 11:33:17;;;;;;;1.33;0.50;;;16.00;99.90;;;;;;5052487;28;20071;-67
2022/09/28 11:36:02;;;;;;;1.10;0.30;;;15.70;99.90;;;;;;5047428;28;20438;-67
2022/09/28 11:39:06;;;;;;;3.03;0.63;;;15.70;99.90;;;;;;5053911;28;20057;-67
2022/09/28 11:42:03;;;;;;;1.45;0.50;;;16.50;99.90;;;;;;5048260;28;20044;-67
2022/09/28 11:44:47;;;;;;;1.42;0.30;;;18.10;99.90;;;;;;5045001;28;20531;-67
2022/09/28 11:47:40;;;;;;;3.10;0.60;;;19.50;99.90;;;;;;5038650;28;20079;-67
2022/09/28 11:50:21;;;;;;;3.83;0.80;;;19.50;99.90;;;;;;5047707;28;20046;-67
2022/09/28 11:52:53;;;;;;;1.40;0.40;;;18.60;99.90;;;;;;5050371;28;20498;-67
2022/09/28 11:55:31;;;;;;;0.60;0.50;;;17.90;99.90;;;;;;5053007;28;20090;-68
2022/09/28 11:58:13;;;;;;;0.70;0.32;;;17.30;99.90;;;;;;5053661;28;20366;-67
2022/09/28 12:00:51;;;;;;;1.52;0.63;;;16.80;99.90;;;;;;5044378;28;20045;-67
2022/09/28 12:03:29;;;;;;;1.25;0.43;;;16.40;99.90;;;;;;5051540;28;20068;-67
2022/09/28 12:06:08;;;;;;;2.67;0.30;;;16.10;99.90;;;;;;5055577;28;20063;-67
2022/09/28 12:08:52;;;;;;;3.20;0.40;;;15.90;99.90;;;;;;5042303;28;20048;-67
2022/09/28 12:11:42;;;;;;;27.08;24.45;;;16.60;99.90;;;;;;5057180;28;20048;-68
2022/09/28 12:14:19;;;;;;;2.30;0.93;;;18.60;99.90;;;;;;5051388;28;20052;-67
2022/09/28 12:17:08;;;;;;;1.42;0.32;;;19.90;99.90;;;;;;5051517;28;20121;-68
2022/09/28 12:19:49;;;;;;;0.88;0.22;;;21.10;97.50;;;;;;5016567;28;20059;-63
2022/09/28 12:22:28;;;;;;;1.27;0.22;;;22.10;92.40;;;;;;5049226;28;20045;-66
2022/09/28 12:24:56;;;;;;;1.33;0.20;;;22.60;83.90;;;;;;5055601;28;20477;-71
2022/09/28 12:27:26;;;;;;;1.58;0.30;;;22.40;76.70;;;;;;5053511;28;20049;-71
2022/09/28 12:30:10;;;;;;;2.45;0.20;;;21.50;79.30;;;;;;5055135;28;20041;-71
2022/09/28 12:32:46;;;;;;;0.70;0.22;;;21.60;82.20;;;;;;5056740;28;20045;-71
2022/09/28 12:35:45;;;;;;;1.17;0.28;;;21.50;82.50;;;;;;5028715;28;20067;-71
2022/09/28 12:38:26;;;;;;;2.50;0.38;;;20.70;80.20;;;;;;5054619;28;20040;-72
2022/09/28 12:41:00;;;;;;;2.53;0.30;;;19.90;83.20;;;;;;5054536;28;20461;-72
2022/09/28 12:43:42;;;;;;;2.70;0.20;;;19.20;84.90;;;;;;5050058;28;20497;-73
2022/09/28 12:46:22;;;;;;;3.13;0.20;;;18.50;88.80;;;;;;5062846;28;20052;-72
2022/09/28 12:49:28;;;;;;;0.50;0.28;;;17.70;91.50;;;;;;5051461;28;20403;-73
2022/09/28 12:51:59;;;;;;;1.50;0.30;;;17.10;92.90;;;;;;5051515;28;20489;-72
2022/09/28 12:54:57;;;;;;;1.45;0.20;;;16.60;95.30;;;;;;5053703;28;20044;-72
2022/09/28 12:57:54;;;;;;;0.35;0.20;;;16.20;96.90;;;;;;5051012;28;20660;-72
2022/09/28 13:00:22;;;;;;;1.02;0.20;;;16.00;99.50;;;;;;5052434;28;20124;-72
2022/09/28 13:03:30;;;;;;;0.93;0.17;;;16.20;99.90;;;;;;5056830;28;20048;-73
2022/09/28 13:06:31;;;;;;;2.03;0.20;;;17.80;99.90;;;;;;5051541;28;20049;-73
2022/09/28 13:09:18;;;;;;;0.75;0.20;;;19.80;95.60;;;;;;5049164;28;20366;-73
2022/09/28 13:12:04;;;;;;;1.30;0.10;;;21.10;91.50;;;;;;5048859;28;20068;-73
2022/09/28 13:15:08;;;;;;;2.83;0.20;;;22.10;87.50;;;;;;5052886;28;20060;-73
2022/09/28 13:18:00;;;;;;;0.98;0.10;;;22.90;82.70;;;;;;5038773;28;20053;-74
2022/09/28 13:20:44;;;;;;;1.63;0.20;;;23.50;79.80;;;;;;5051877;28;20103;-73